Time;durP1;ratioP1;P1;durP2;ratioP2;P2;SDS_P1;SDS_P2;PMS_P1;PMS_P2;Temp;Humidity;BMP_temperature;BMP_pressure;BME280_temperature;BME280_humidity;BME280_pressure;Samples;Min_cycle;Max_cycle;Signal;HPM_P1;HPM_P2
2021/10/01 00:02:16;;;;;;;;;;;13.60;99.90;;;;;;5037387;28;19968;-77
2021/10/01 00:04:42;;;;;;;;;;;13.60;99.90;;;;;;5045064;28;19917;-77
2021/10/01 00:07:09;;;;;;;;;;;13.70;99.90;;;;;;5049548;28;19917;-79
2021/10/01 00:09:35;;;;;;;;;;;13.60;99.90;;;;;;5042325;28;20007;-77
2021/10/01 00:12:00;;;;;;;;;;;13.70;99.90;;;;;;5046250;28;20000;-77
2021/10/01 00:14:26;;;;;;;;;;;13.70;99.90;;;;;;5034708;28;20309;-77
2021/10/01 00:16:53;;;;;;;;;;;13.70;99.90;;;;;;5038127;28;19913;-77
2021/10/01 00:19:19;;;;;;;;;;;13.80;99.90;;;;;;5037279;28;20024;-76
2021/10/01 00:21:45;;;;;;;;;;;13.80;99.90;;;;;;5041547;28;19913;-76
2021/10/01 00:24:11;;;;;;;;;;;13.80;99.90;;;;;;5035690;28;20428;-77
2021/10/01 00:26:37;;;;;;;;;;;13.80;99.90;;;;;;5049633;28;20012;-76
2021/10/01 00:29:03;;;;;;;;;;;13.80;99.90;;;;;;5034662;28;19958;-77
2021/10/01 00:31:31;;;;;;;;;;;13.90;99.90;;;;;;5034742;28;19980;-76
2021/10/01 00:33:56;;;;;;;;;;;13.90;99.90;;;;;;5037798;28;20546;-76
2021/10/01 00:36:24;;;;;;;;;;;14.00;99.90;;;;;;5035679;28;19920;-76
2021/10/01 00:38:50;;;;;;;;;;;13.90;99.90;;;;;;5036274;28;20393;-76
2021/10/01 00:41:15;;;;;;;;;;;14.00;99.90;;;;;;5033498;28;19932;-76
2021/10/01 00:43:41;;;;;;;;;;;14.00;99.90;;;;;;5033279;28;19917;-76
2021/10/01 00:46:06;;;;;;;;;;;14.00;99.90;;;;;;5034397;28;20286;-76
2021/10/01 00:48:32;;;;;;;;;;;14.00;99.90;;;;;;5033421;28;19960;-76
2021/10/01 00:50:58;;;;;;;;;;;14.00;99.90;;;;;;5044407;28;19917;-76
2021/10/01 00:53:23;;;;;;;;;;;14.00;99.90;;;;;;5054310;28;19913;-77
2021/10/01 00:55:49;;;;;;;;;;;14.00;99.90;;;;;;5039171;28;19948;-74
2021/10/01 00:58:14;;;;;;;;;;;13.90;99.90;;;;;;5039437;28;19920;-75
2021/10/01 01:01:13;;;;;;;;;;;14.00;99.90;;;;;;5032163;28;19963;-78
2021/10/01 01:03:32;;;;;;;;;;;14.00;99.90;;;;;;5036658;28;20292;-75
2021/10/01 01:06:16;;;;;;;;;;;13.90;99.90;;;;;;5046426;28;19917;-75
2021/10/01 01:08:51;;;;;;;;;;;13.90;99.90;;;;;;5055255;28;19913;-76
2021/10/01 01:11:31;;;;;;;;;;;13.80;99.90;;;;;;5035328;28;19917;-77
2021/10/01 01:14:01;;;;;;;;;;;13.80;99.90;;;;;;5033794;28;19913;-76
2021/10/01 01:16:30;;;;;;;;;;;13.70;99.90;;;;;;5041808;28;19913;-76
2021/10/01 01:18:57;;;;;;;;;;;13.60;99.90;;;;;;5034940;28;19914;-76
2021/10/01 01:21:41;;;;;;;;;;;13.60;99.90;;;;;;5034001;28;19960;-76
2021/10/01 01:24:13;;;;;;;;;;;13.50;99.90;;;;;;5033928;28;20373;-76
2021/10/01 01:26:57;;;;;;;;;;;13.50;99.90;;;;;;5035298;28;19913;-76
2021/10/01 01:29:38;;;;;;;;;;;13.40;99.90;;;;;;5035029;28;19921;-76
2021/10/01 01:32:09;;;;;;;;;;;13.40;99.90;;;;;;5033103;28;20019;-77
2021/10/01 01:34:37;;;;;;;;;;;13.40;99.90;;;;;;5038628;28;19913;-77
2021/10/01 01:37:08;;;;;;;;;;;13.40;99.90;;;;;;5039622;28;20297;-77
2021/10/01 01:39:35;;;;;;;;;;;13.40;99.90;;;;;;5042391;28;20392;-77
2021/10/01 01:42:02;;;;;;;;;;;13.40;99.90;;;;;;5040656;28;19917;-77
2021/10/01 01:44:28;;;;;;;;;;;13.40;99.90;;;;;;5040730;28;20020;-77
2021/10/01 01:46:55;;;;;;;;;;;13.40;99.90;;;;;;5069706;28;19919;-77
2021/10/01 01:49:22;;;;;;;;;;;13.40;99.90;;;;;;5071755;28;19901;-77
2021/10/01 01:51:48;;;;;;;;;;;13.50;99.90;;;;;;5075807;28;19909;-77
2021/10/01 01:54:18;;;;;;;;;;;13.40;99.90;;;;;;5065185;28;19948;-77
2021/10/01 01:56:44;;;;;;;;;;;13.40;99.90;;;;;;5057688;28;19960;-76
2021/10/01 01:59:10;;;;;;;;;;;13.40;99.90;;;;;;5077784;28;19928;-77
2021/10/01 02:01:35;;;;;;;;;;;13.40;99.90;;;;;;5066041;28;19964;-76
2021/10/01 02:04:01;;;;;;;;;;;13.40;99.90;;;;;;5063940;28;19912;-75
2021/10/01 02:06:28;;;;;;;;;;;13.40;99.90;;;;;;5061685;28;19960;-77
2021/10/01 02:08:54;;;;;;;;;;;13.40;99.90;;;;;;5074833;28;19921;-77
2021/10/01 02:11:20;;;;;;;;;;;13.40;99.90;;;;;;5062369;28;19907;-76
2021/10/01 02:13:46;;;;;;;;;;;13.40;99.90;;;;;;5061991;28;19901;-76
2021/10/01 02:16:13;;;;;;;;;;;13.40;99.90;;;;;;5064242;28;19924;-75
2021/10/01 02:18:39;;;;;;;;;;;13.40;99.90;;;;;;5072982;28;20394;-71
2021/10/01 02:21:05;;;;;;;;;;;13.40;99.90;;;;;;5051729;28;19913;-75
2021/10/01 02:23:30;;;;;;;;;;;13.40;99.90;;;;;;5040693;28;19948;-76
2021/10/01 02:28:56;;;;;;;;;;;13.40;99.90;;;;;;5042714;28;19940;-76
2021/10/01 02:31:24;;;;;;;;;;;13.50;99.90;;;;;;5037665;28;19917;-77
2021/10/01 02:33:51;;;;;;;;;;;13.50;99.90;;;;;;5038069;28;19913;-76
2021/10/01 02:36:17;;;;;;;;;;;13.50;99.90;;;;;;5042767;28;20388;-76
2021/10/01 02:38:43;;;;;;;;;;;13.50;99.90;;;;;;5038051;28;19921;-76
2021/10/01 02:41:08;;;;;;;;;;;13.50;99.90;;;;;;5038217;28;19913;-76
2021/10/01 02:43:34;;;;;;;;;;;13.50;99.90;;;;;;5037173;28;20396;-76
2021/10/01 02:45:59;;;;;;;;;;;13.40;99.90;;;;;;5039306;28;19917;-76
2021/10/01 02:48:25;;;;;;;;;;;13.40;99.90;;;;;;5036055;28;19913;-76
2021/10/01 02:50:51;;;;;;;;;;;13.40;99.90;;;;;;5036477;28;20000;-76
2021/10/01 02:53:21;;;;;;;;;;;13.40;99.90;;;;;;5051331;28;19913;-76
2021/10/01 02:55:46;;;;;;;;;;;13.30;99.90;;;;;;5037767;28;19952;-77
2021/10/01 02:58:19;;;;;;;;;;;13.30;99.90;;;;;;5036667;28;19920;-76
2021/10/01 03:00:45;;;;;;;;;;;13.30;99.90;;;;;;5034938;28;19921;-76
2021/10/01 03:03:25;;;;;;;;;;;13.30;99.90;;;;;;5036719;28;20423;-76
2021/10/01 03:05:52;;;;;;;;;;;13.20;99.90;;;;;;5035995;28;19971;-77
2021/10/01 03:08:18;;;;;;;;;;;13.20;99.90;;;;;;5036842;28;19917;-76
2021/10/01 03:10:44;;;;;;;;;;;13.20;99.90;;;;;;5040450;28;19913;-76
2021/10/01 03:13:10;;;;;;;;;;;13.20;99.90;;;;;;5047339;28;19913;-77
2021/10/01 03:15:36;;;;;;;;;;;13.20;99.90;;;;;;5038987;28;20282;-76
2021/10/01 03:18:02;;;;;;;;;;;13.20;99.90;;;;;;5035784;28;20297;-76
2021/10/01 03:20:28;;;;;;;;;;;13.20;99.90;;;;;;5045380;28;19917;-76
2021/10/01 03:22:54;;;;;;;;;;;13.20;99.90;;;;;;5039516;28;19964;-76
2021/10/01 03:25:19;;;;;;;;;;;13.20;99.90;;;;;;5036154;28;19932;-76
2021/10/01 03:27:45;;;;;;;;;;;13.10;99.90;;;;;;5055607;28;19913;-76
2021/10/01 03:30:11;;;;;;;;;;;13.10;99.90;;;;;;5035727;28;20007;-77
2021/10/01 03:32:37;;;;;;;;;;;13.10;99.90;;;;;;5036700;28;20370;-76
2021/10/01 03:35:07;;;;;;;;;;;13.00;99.90;;;;;;5057675;28;19913;-76
2021/10/01 03:37:32;;;;;;;;;;;13.10;99.90;;;;;;5034958;28;19920;-76
2021/10/01 03:40:05;;;;;;;;;;;13.10;99.90;;;;;;5051160;28;19921;-76
2021/10/01 03:42:30;;;;;;;;;;;13.10;99.90;;;;;;5043127;28;19914;-76
2021/10/01 03:44:56;;;;;;;;;;;13.10;99.90;;;;;;5036431;28;20008;-76
2021/10/01 03:47:21;;;;;;;;;;;13.10;99.90;;;;;;5039424;28;19913;-76
2021/10/01 03:49:47;;;;;;;;;;;13.10;99.90;;;;;;5035763;28;20000;-76
2021/10/01 03:52:13;;;;;;;;;;;13.10;99.90;;;;;;5035361;28;20004;-76
2021/10/01 03:54:40;;;;;;;;;;;13.10;99.90;;;;;;5034540;28;19920;-76
2021/10/01 03:57:06;;;;;;;;;;;13.20;99.90;;;;;;5035322;28;19927;-76
2021/10/01 03:59:31;;;;;;;;;;;13.20;99.90;;;;;;5035564;28;19913;-76
2021/10/01 04:01:57;;;;;;;;;;;13.20;99.90;;;;;;5048428;28;19912;-76
2021/10/01 04:04:22;;;;;;;;;;;13.10;99.90;;;;;;5036095;28;19940;-76
2021/10/01 04:06:48;;;;;;;;;;;13.10;99.90;;;;;;5035505;28;19917;-75
2021/10/01 04:09:13;;;;;;;;;;;13.10;99.90;;;;;;5036650;28;19928;-76
2021/10/01 04:11:39;;;;;;;;;;;13.10;99.90;;;;;;5034207;28;19912;-76
2021/10/01 04:14:05;;;;;;;;;;;13.10;99.90;;;;;;5033648;28;19913;-76
2021/10/01 04:16:31;;;;;;;;;;;13.10;99.90;;;;;;5037075;28;20353;-76
2021/10/01 04:18:57;;;;;;;;;;;13.10;99.90;;;;;;5055047;28;19913;-76
2021/10/01 04:21:22;;;;;;;;;;;13.00;99.90;;;;;;5034140;28;19951;-76
2021/10/01 04:23:48;;;;;;;;;;;13.00;99.90;;;;;;5042388;28;19963;-76
2021/10/01 04:26:13;;;;;;;;;;;13.10;99.90;;;;;;5038569;28;19927;-76
2021/10/01 04:28:39;;;;;;;;;;;13.10;99.90;;;;;;5035121;28;19920;-76
2021/10/01 04:31:04;;;;;;;;;;;13.10;99.90;;;;;;5038822;28;20476;-76
2021/10/01 04:33:51;;;;;;;;;;;13.10;99.90;;;;;;5035981;28;19913;-75
2021/10/01 04:36:16;;;;;;;;;;;13.20;99.90;;;;;;5050148;28;19923;-76
2021/10/01 04:38:41;;;;;;;;;;;13.20;99.90;;;;;;5055783;28;20289;-76
2021/10/01 04:41:07;;;;;;;;;;;13.20;99.90;;;;;;5075789;28;19925;-76
2021/10/01 04:43:33;;;;;;;;;;;13.20;99.90;;;;;;5075930;28;19917;-76
2021/10/01 04:45:58;;;;;;;;;;;13.30;99.90;;;;;;5065954;28;19901;-76
2021/10/01 04:48:24;;;;;;;;;;;13.30;99.90;;;;;;5058907;28;19901;-76
2021/10/01 04:50:49;;;;;;;;;;;13.30;99.90;;;;;;5058535;28;19908;-77
2021/10/01 04:53:15;;;;;;;;;;;13.30;99.90;;;;;;5064040;28;19907;-76
2021/10/01 04:55:41;;;;;;;;;;;13.30;99.90;;;;;;5058564;28;19917;-76
2021/10/01 04:58:06;;;;;;;;;;;13.30;99.90;;;;;;5059122;28;19977;-76
2021/10/01 05:00:32;;;;;;;;;;;13.30;99.90;;;;;;5059463;28;19924;-76
2021/10/01 05:02:58;;;;;;;;;;;13.20;99.90;;;;;;5058021;28;19931;-76
2021/10/01 05:05:23;;;;;;;;;;;13.20;99.90;;;;;;5066386;28;19925;-71
2021/10/01 05:07:49;;;;;;;;;;;13.30;99.90;;;;;;5055757;28;19913;-76
2021/10/01 05:10:15;;;;;;;;;;;13.30;99.90;;;;;;5036912;28;19936;-76
2021/10/01 05:12:41;;;;;;;;;;;13.30;99.90;;;;;;5035376;28;19913;-76
2021/10/01 05:15:07;;;;;;;;;;;13.20;99.90;;;;;;5034759;28;19917;-75
2021/10/01 05:17:35;;;;;;;;;;;13.20;99.90;;;;;;5034944;28;20309;-76
2021/10/01 05:20:00;;;;;;;;;;;13.20;99.90;;;;;;5041574;28;19913;-76
2021/10/01 05:22:26;;;;;;;;;;;13.20;99.90;;;;;;5034349;28;19959;-76
2021/10/01 05:24:51;;;;;;;;;;;13.20;99.90;;;;;;5033492;28;19928;-76
2021/10/01 05:27:17;;;;;;;;;;;13.20;99.90;;;;;;5033952;28;19971;-76
2021/10/01 05:29:42;;;;;;;;;;;13.10;99.90;;;;;;5033238;28;19920;-76
2021/10/01 05:32:08;;;;;;;;;;;13.10;99.90;;;;;;5035593;28;19913;-76
2021/10/01 05:34:33;;;;;;;;;;;13.10;99.90;;;;;;5034150;28;19913;-76
2021/10/01 05:36:59;;;;;;;;;;;13.00;99.90;;;;;;5050052;28;19913;-76
2021/10/01 05:39:24;;;;;;;;;;;13.10;99.90;;;;;;5034412;28;19913;-76
2021/10/01 05:41:50;;;;;;;;;;;13.10;99.90;;;;;;5038465;28;19983;-76
2021/10/01 05:44:15;;;;;;;;;;;13.10;99.90;;;;;;5036895;28;19921;-75
2021/10/01 05:46:44;;;;;;;;;;;13.00;99.90;;;;;;5053428;28;19956;-76
2021/10/01 05:49:18;;;;;;;;;;;13.00;99.90;;;;;;5058316;28;20393;-76
2021/10/01 05:51:59;;;;;;;;;;;13.00;99.90;;;;;;5036563;28;20373;-76
2021/10/01 05:54:25;;;;;;;;;;;13.10;99.90;;;;;;5042760;28;20504;-76
2021/10/01 05:56:51;;;;;;;;;;;13.10;99.90;;;;;;5046697;28;19917;-76
2021/10/01 05:59:17;;;;;;;;;;;13.10;99.90;;;;;;5037810;28;19920;-77
2021/10/01 06:01:42;;;;;;;;;;;13.10;99.90;;;;;;5037997;28;19913;-77
2021/10/01 06:04:08;;;;;;;;;;;13.10;99.90;;;;;;5048491;28;20461;-76
2021/10/01 06:06:33;;;;;;;;;;;13.20;99.90;;;;;;5036160;28;20297;-76
2021/10/01 06:08:59;;;;;;;;;;;13.20;99.90;;;;;;5037418;28;19963;-76
2021/10/01 06:11:25;;;;;;;;;;;13.20;99.90;;;;;;5037774;28;19920;-76
2021/10/01 06:13:50;;;;;;;;;;;13.20;99.90;;;;;;5037017;28;19921;-76
2021/10/01 06:16:16;;;;;;;;;;;13.20;99.90;;;;;;5049617;28;20285;-77
2021/10/01 06:18:42;;;;;;;;;;;13.20;99.90;;;;;;5036869;28;19920;-76
2021/10/01 06:21:07;;;;;;;;;;;13.20;99.90;;;;;;5050631;28;19955;-77
2021/10/01 06:23:34;;;;;;;;;;;13.20;99.90;;;;;;5044250;28;19917;-77
2021/10/01 06:26:04;;;;;;;;;;;13.20;99.90;;;;;;5043094;28;20440;-77
2021/10/01 06:28:29;;;;;;;;;;;13.20;99.90;;;;;;5043483;28;19920;-77
2021/10/01 06:30:57;;;;;;;;;;;13.20;99.90;;;;;;5044567;28;19912;-76
2021/10/01 06:33:23;;;;;;;;;;;13.30;99.90;;;;;;5061125;28;19920;-77
2021/10/01 06:35:49;;;;;;;;;;;13.20;99.90;;;;;;5051770;28;19913;-77
2021/10/01 06:38:14;;;;;;;;;;;13.30;99.90;;;;;;5062101;28;19970;-77
2021/10/01 06:40:40;;;;;;;;;;;13.20;99.90;;;;;;5047262;28;19920;-77
2021/10/01 06:43:08;;;;;;;;;;;13.20;99.90;;;;;;5038574;28;19913;-77
2021/10/01 06:45:34;;;;;;;;;;;13.30;99.90;;;;;;5040810;28;19924;-77
2021/10/01 08:20:35;;;;;;;;;;;14.50;99.90;;;;;;5035524;28;20059;-74
2021/10/01 08:23:01;;;;;;;;;;;14.50;99.90;;;;;;5033238;28;19952;-79
2021/10/01 08:25:26;;;;;;;;;;;14.50;99.90;;;;;;5037174;28;19916;-84
2021/10/01 08:27:52;;;;;;;;;;;14.50;99.90;;;;;;5050335;28;19913;-76
2021/10/01 08:30:18;;;;;;;;;;;14.50;99.90;;;;;;5034372;28;19923;-77
2021/10/01 08:32:43;;;;;;;;;;;14.50;99.90;;;;;;5047071;28;20011;-76
2021/10/01 08:35:09;;;;;;;;;;;14.60;99.90;;;;;;5037173;28;20292;-76
2021/10/01 08:37:35;;;;;;;;;;;14.60;99.90;;;;;;5034538;28;19964;-77
2021/10/01 08:40:01;;;;;;;;;;;14.70;99.90;;;;;;5033036;28;19910;-77
2021/10/01 08:42:27;;;;;;;;;;;14.80;99.90;;;;;;5034189;28;19909;-77
2021/10/01 08:44:53;;;;;;;;;;;14.90;99.90;;;;;;5032920;28;20289;-77
2021/10/01 08:47:18;;;;;;;;;;;15.00;99.90;;;;;;5041698;28;19913;-76
2021/10/01 08:49:47;;;;;;;;;;;15.10;99.90;;;;;;5050885;28;19921;-78
2021/10/01 08:52:13;;;;;;;;;;;15.20;99.90;;;;;;5038560;28;19913;-78
2021/10/01 08:54:41;;;;;;;;;;;15.20;99.90;;;;;;5042230;28;20012;-77
2021/10/01 08:57:07;;;;;;;;;;;15.30;99.90;;;;;;5033640;28;20447;-78
2021/10/01 08:59:33;;;;;;;;;;;15.40;99.90;;;;;;5039348;28;19921;-77
2021/10/01 09:01:58;;;;;;;;;;;15.50;99.90;;;;;;5043540;28;19921;-77
2021/10/01 09:04:24;;;;;;;;;;;15.50;99.90;;;;;;5038341;28;19917;-78
2021/10/01 09:06:50;;;;;;;;;;;15.60;99.90;;;;;;5037425;28;19955;-76
2021/10/01 09:09:15;;;;;;;;;;;15.60;99.90;;;;;;5052377;28;19939;-77
2021/10/01 09:11:47;;;;;;;;;;;15.60;99.90;;;;;;5048227;28;19963;-77
2021/10/01 09:14:14;;;;;;;;;;;15.60;99.90;;;;;;5053771;28;20003;-78
2021/10/01 09:16:41;;;;;;;;;;;15.60;99.90;;;;;;5050640;28;20376;-77
2021/10/01 09:19:07;;;;;;;;;;;15.70;99.90;;;;;;5037275;28;20360;-77
2021/10/01 09:21:40;;;;;;;;;;;15.70;99.90;;;;;;5034161;28;19941;-77
2021/10/01 09:24:08;;;;;;;;;;;15.70;99.90;;;;;;5033494;28;19925;-76
2021/10/01 09:26:43;;;;;;;;;;;15.80;99.90;;;;;;5033980;28;21499;-78
2021/10/01 09:29:11;;;;;;;;;;;15.80;99.90;;;;;;5036069;28;19913;-77
2021/10/01 09:31:44;;;;;;;;;;;15.80;99.90;;;;;;5034400;28;19913;-78
2021/10/01 09:34:12;;;;;;;;;;;15.80;99.90;;;;;;5032087;28;19910;-80
2021/10/01 09:36:38;;;;;;;;;;;15.90;99.90;;;;;;5031756;28;19913;-78
2021/10/01 09:39:05;;;;;;;;;;;15.80;99.90;;;;;;5033200;28;19944;-77
2021/10/01 09:41:32;;;;;;;;;;;15.80;99.90;;;;;;5046065;28;19913;-78
2021/10/01 09:44:08;;;;;;;;;;;15.80;99.90;;;;;;5040390;28;19921;-77
2021/10/01 09:46:38;;;;;;;;;;;15.70;99.90;;;;;;5033128;28;19959;-78
2021/10/01 09:49:04;;;;;;;;;;;15.70;99.90;;;;;;5033184;28;19916;-77
2021/10/01 09:51:30;;;;;;;;;;;15.70;99.90;;;;;;5033248;28;20376;-77
2021/10/01 09:53:55;;;;;;;;;;;15.70;99.90;;;;;;5031748;28;20321;-77
2021/10/01 09:56:22;;;;;;;;;;;15.80;99.90;;;;;;5032182;28;19920;-78
2021/10/01 09:59:06;;;;;;;;;;;15.80;99.90;;;;;;5032938;28;19923;-77
2021/10/01 10:01:32;;;;;;;;;;;15.80;99.90;;;;;;5035270;28;19912;-77
2021/10/01 10:03:57;;;;;;;;;;;15.80;99.90;;;;;;5037013;28;20399;-77
2021/10/01 10:06:23;;;;;;;;;;;15.70;99.90;;;;;;5032014;28;19909;-76
2021/10/01 10:08:49;;;;;;;;;;;15.60;99.90;;;;;;5050465;28;20008;-77
2021/10/01 10:11:16;;;;;;;;;;;15.60;99.90;;;;;;5032788;28;19948;-76
2021/10/01 10:13:47;;;;;;;;;;;15.50;99.90;;;;;;5033366;28;19909;-76
2021/10/01 10:16:13;;;;;;;;;;;15.50;99.90;;;;;;5032760;28;19916;-77
2021/10/01 10:18:39;;;;;;;;;;;15.40;99.90;;;;;;5039364;28;20358;-77
2021/10/01 10:21:05;;;;;;;;;;;15.40;99.90;;;;;;5032905;28;19913;-77
2021/10/01 10:23:30;;;;;;;;;;;15.40;99.90;;;;;;5043714;28;19928;-76
2021/10/01 10:25:56;;;;;;;;;;;15.40;99.90;;;;;;5053960;28;19980;-76
2021/10/01 10:28:21;;;;;;;;;;;15.40;99.90;;;;;;5060551;28;19897;-77
2021/10/01 10:30:48;;;;;;;;;;;15.30;99.90;;;;;;5060951;28;19963;-77
2021/10/01 10:33:32;;;;;;;;;;;15.30;99.90;;;;;;5060993;28;19917;-77
2021/10/01 10:35:58;;;;;;;;;;;15.20;99.90;;;;;;5077882;28;19905;-77
2021/10/01 10:38:33;;;;;;;;;;;15.20;99.90;;;;;;5070799;28;19967;-78
2021/10/01 10:41:34;;;;;;;;;;;15.20;99.90;;;;;;5060458;28;19918;-78
2021/10/01 10:43:59;;;;;;;;;;;15.10;99.90;;;;;;5006143;28;20081;-78
2021/10/01 10:46:34;;;;;;;;;;;15.00;99.90;;;;;;5051569;28;19917;-76
2021/10/01 10:49:21;;;;;;;;;;;14.90;99.90;;;;;;5061189;28;19947;-79
2021/10/01 10:51:59;;;;;;;;;;;14.90;99.90;;;;;;5049542;28;19914;-79
2021/10/01 10:54:25;;;;;;;;;;;14.80;99.90;;;;;;5053263;28;19912;-78
2021/10/01 10:57:09;;;;;;;;;;;14.80;99.90;;;;;;5049478;28;20525;-82
2021/10/01 10:59:35;;;;;;;;;;;14.80;99.90;;;;;;5047771;28;19920;-79
2021/10/01 11:02:16;;;;;;;;;;;14.80;99.90;;;;;;5043944;28;20325;-78
2021/10/01 11:04:41;;;;;;;;;;;14.80;99.90;;;;;;5037320;28;19923;-81
2021/10/01 11:07:08;;;;;;;;;;;14.80;99.90;;;;;;5039453;28;19916;-79
2021/10/01 11:09:34;;;;;;;;;;;14.80;99.90;;;;;;5039656;28;20346;-78
2021/10/01 11:12:00;;;;;;;;;;;14.80;99.90;;;;;;5038029;28;19917;-77
2021/10/01 11:14:28;;;;;;;;;;;14.80;99.90;;;;;;5036986;28;20424;-77
2021/10/01 11:16:54;;;;;;;;;;;14.80;99.90;;;;;;5039804;28;20270;-77
2021/10/01 11:19:35;;;;;;;;;;;14.90;99.90;;;;;;5034609;28;19921;-77
2021/10/01 11:22:21;;;;;;;;;;;14.90;99.90;;;;;;5033954;28;19952;-78
2021/10/01 11:24:47;;;;;;;;;;;15.10;99.90;;;;;;5034677;28;19932;-77
2021/10/01 11:27:12;;;;;;;;;;;15.20;99.90;;;;;;5035653;28;19916;-76
2021/10/01 11:29:38;;;;;;;;;;;15.20;99.90;;;;;;5054626;28;19971;-77
2021/10/01 11:32:07;;;;;;;;;;;15.30;99.90;;;;;;5039488;28;19917;-77
2021/10/01 11:34:35;;;;;;;;;;;15.30;99.90;;;;;;5037281;28;19917;-77
2021/10/01 11:37:01;;;;;;;;;;;15.40;99.90;;;;;;5045741;28;19913;-78
2021/10/01 11:39:26;;;;;;;;;;;15.40;99.90;;;;;;5049196;28;20317;-78
2021/10/01 11:41:52;;;;;;;;;;;15.30;99.90;;;;;;5055346;28;19931;-77
2021/10/01 11:44:17;;;;;;;;;;;15.40;99.90;;;;;;5041272;28;19921;-78
2021/10/01 11:46:44;;;;;;;;;;;15.50;99.90;;;;;;5039202;28;19919;-78
2021/10/01 11:49:18;;;;;;;;;;;15.60;99.90;;;;;;5055653;28;19920;-78
2021/10/01 11:52:00;;;;;;;;;;;15.60;99.90;;;;;;5055558;28;19923;-78
2021/10/01 11:54:25;;;;;;;;;;;15.60;99.90;;;;;;5049864;28;20007;-78
2021/10/01 11:57:09;;;;;;;;;;;15.70;99.90;;;;;;5033660;28;19944;-78
2021/10/01 11:59:53;;;;;;;;;;;15.80;99.90;;;;;;5034845;28;19928;-78
2021/10/01 12:02:32;;;;;;;;;;;15.90;99.90;;;;;;5038800;28;19924;-77
2021/10/01 12:04:59;;;;;;;;;;;16.00;99.90;;;;;;5033578;28;19917;-78
2021/10/01 12:07:24;;;;;;;;;;;16.00;99.90;;;;;;5040625;28;19920;-78
2021/10/01 12:10:00;;;;;;;;;;;16.00;99.90;;;;;;5032852;28;20329;-77
2021/10/01 12:12:25;;;;;;;;;;;15.90;99.90;;;;;;5052942;28;19919;-77
2021/10/01 12:14:51;;;;;;;;;;;16.00;99.90;;;;;;5054454;28;20436;-78
2021/10/01 12:17:17;;;;;;;;;;;16.00;99.90;;;;;;5044590;28;20400;-78
2021/10/01 12:19:42;;;;;;;;;;;16.00;99.90;;;;;;5035546;28;19914;-78
2021/10/01 12:22:07;;;;;;;;;;;16.10;99.90;;;;;;5034439;28;19962;-77
2021/10/01 12:24:40;;;;;;;;;;;16.10;99.90;;;;;;5045778;28;19927;-78
2021/10/01 12:27:05;;;;;;;;;;;16.10;99.90;;;;;;5047738;28;19916;-77
2021/10/01 12:29:31;;;;;;;;;;;16.20;99.90;;;;;;5036414;28;19913;-77
2021/10/01 12:31:59;;;;;;;;;;;16.30;99.90;;;;;;5049695;28;19925;-77
2021/10/01 12:34:25;;;;;;;;;;;16.30;99.90;;;;;;5054123;28;19967;-79
2021/10/01 12:36:54;;;;;;;;;;;16.30;99.90;;;;;;5044288;28;20420;-77
2021/10/01 12:39:22;;;;;;;;;;;16.30;99.90;;;;;;5035214;28;20391;-77
2021/10/01 12:42:08;;;;;;;;;;;16.20;99.90;;;;;;5033967;28;19971;-77
2021/10/01 12:44:38;;;;;;;;;;;16.20;99.90;;;;;;5033451;28;19947;-77
2021/10/01 12:47:13;;;;;;;;;;;16.20;99.90;;;;;;5035369;28;19913;-78
2021/10/01 12:49:38;;;;;;;;;;;16.10;99.90;;;;;;5033695;28;19999;-78
2021/10/01 12:52:14;;;;;;;;;;;16.00;99.90;;;;;;5043611;28;19956;-78
2021/10/01 12:54:44;;;;;;;;;;;16.00;99.90;;;;;;5032381;28;19913;-78
2021/10/01 12:57:11;;;;;;;;;;;15.90;99.90;;;;;;5048209;28;20369;-78
2021/10/01 12:59:37;;;;;;;;;;;15.80;99.90;;;;;;5053942;28;20654;-78
2021/10/01 13:02:06;;;;;;;;;;;15.80;99.90;;;;;;5035892;28;20024;-79
2021/10/01 13:04:42;;;;;;;;;;;15.80;99.90;;;;;;5032284;28;19917;-78
2021/10/01 13:07:46;;;;;;;;;;;15.80;99.90;;;;;;5032625;28;19921;-78
2021/10/01 13:10:15;;;;;;;;;;;15.80;99.90;;;;;;4991091;28;20434;-78
2021/10/01 13:12:54;;;;;;;;;;;15.80;99.90;;;;;;5010817;28;19913;-79
2021/10/01 13:15:52;;;;;;;;;;;15.80;99.90;;;;;;5031501;28;19936;-77
2021/10/01 13:18:41;;;;;;;;;;;15.80;99.90;;;;;;5008608;28;19916;-79
2021/10/01 13:21:08;;;;;;;;;;;15.90;99.90;;;;;;5032680;28;19913;-78
2021/10/01 13:23:41;;;;;;;;;;;15.90;99.90;;;;;;5033867;28;20451;-79
2021/10/01 13:26:16;;;;;;;;;;;16.00;99.90;;;;;;5033299;28;19921;-78
2021/10/01 13:28:44;;;;;;;;;;;16.00;99.90;;;;;;5047811;28;19913;-77
2021/10/01 13:31:10;;;;;;;;;;;16.00;99.90;;;;;;5045362;28;19913;-78
2021/10/01 13:33:35;;;;;;;;;;;15.90;99.90;;;;;;5043897;28;20300;-77
2021/10/01 13:36:01;;;;;;;;;;;15.90;99.90;;;;;;5051584;28;19995;-77
2021/10/01 13:38:28;;;;;;;;;;;15.90;99.90;;;;;;5043471;28;21313;-77
2021/10/01 13:40:53;;;;;;;;;;;15.90;99.90;;;;;;5035054;28;20285;-77
2021/10/01 13:43:19;;;;;;;;;;;15.90;99.90;;;;;;5036383;28;19913;-76
2021/10/01 13:45:44;;;;;;;;;;;15.80;99.90;;;;;;5036185;28;19917;-81
2021/10/01 13:48:11;;;;;;;;;;;15.90;99.90;;;;;;5045931;28;19917;-79
2021/10/01 13:50:36;;;;;;;;;;;15.90;99.90;;;;;;5032966;28;20384;-80
2021/10/01 13:53:02;;;;;;;;;;;15.90;99.90;;;;;;5035492;28;19913;-79
2021/10/01 13:55:27;;;;;;;;;;;15.90;99.90;;;;;;5031785;28;20431;-78
2021/10/01 13:57:53;;;;;;;;;;;15.90;99.90;;;;;;5048823;28;19913;-78
2021/10/01 14:00:20;;;;;;;;;;;15.90;99.90;;;;;;5032773;28;20436;-77
2021/10/01 14:02:46;;;;;;;;;;;16.00;99.90;;;;;;5034473;28;19913;-79
2021/10/01 14:05:12;;;;;;;;;;;16.00;99.90;;;;;;5036350;28;19917;-84
2021/10/01 14:07:38;;;;;;;;;;;16.00;99.90;;;;;;5040827;28;19917;-76
2021/10/01 14:10:06;;;;;;;;;;;16.10;99.90;;;;;;5060187;28;19905;-77
2021/10/01 14:12:31;;;;;;;;;;;16.20;99.90;;;;;;5058975;28;19902;-76
2021/10/01 14:14:57;;;;;;;;;;;16.30;99.90;;;;;;5066084;28;19921;-76
2021/10/01 14:17:23;;;;;;;;;;;16.30;99.90;;;;;;5069382;28;19901;-79
2021/10/01 14:19:48;;;;;;;;;;;16.40;99.90;;;;;;5063036;28;19909;-78
2021/10/01 14:22:14;;;;;;;;;;;16.40;99.90;;;;;;5061211;28;19908;-76
2021/10/01 14:24:40;;;;;;;;;;;16.50;99.90;;;;;;5063342;28;19929;-80
2021/10/01 14:27:05;;;;;;;;;;;16.40;99.90;;;;;;5067156;28;19917;-78
2021/10/01 14:29:31;;;;;;;;;;;16.50;99.90;;;;;;5063210;28;19912;-77
2021/10/01 14:31:56;;;;;;;;;;;16.60;99.90;;;;;;5070020;28;19956;-76
2021/10/01 14:34:22;;;;;;;;;;;16.60;99.90;;;;;;5063957;28;19905;-77
2021/10/01 14:36:48;;;;;;;;;;;16.60;99.90;;;;;;5060642;28;19917;-76
2021/10/01 14:39:13;;;;;;;;;;;16.60;99.90;;;;;;5071084;28;19923;-77
2021/10/01 14:41:39;;;;;;;;;;;16.50;99.90;;;;;;5070149;28;19960;-75
2021/10/01 14:44:05;;;;;;;;;;;16.40;99.90;;;;;;5060478;28;19925;-76
2021/10/01 14:46:30;;;;;;;;;;;16.40;99.90;;;;;;5061845;28;19916;-76
2021/10/01 14:48:56;;;;;;;;;;;16.40;99.90;;;;;;5063305;28;19921;-76
2021/10/01 14:51:21;;;;;;;;;;;16.30;99.90;;;;;;5059860;28;19902;-76
2021/10/01 14:53:47;;;;;;;;;;;16.30;99.90;;;;;;5062651;28;19960;-75
2021/10/01 14:56:12;;;;;;;;;;;16.20;99.90;;;;;;5051070;28;20360;-82
2021/10/01 14:58:38;;;;;;;;;;;16.20;99.90;;;;;;5041796;28;19919;-79
2021/10/01 15:01:03;;;;;;;;;;;16.10;99.90;;;;;;5041372;28;20009;-78
2021/10/01 15:03:29;;;;;;;;;;;16.10;99.90;;;;;;5041589;28;19920;-78
2021/10/01 15:05:55;;;;;;;;;;;16.10;99.90;;;;;;5036939;28;20354;-77
2021/10/01 15:08:22;;;;;;;;;;;16.00;99.90;;;;;;5048483;28;20229;-78
2021/10/01 15:10:47;;;;;;;;;;;16.00;99.90;;;;;;5038418;28;20293;-78
2021/10/01 15:13:13;;;;;;;;;;;16.10;99.90;;;;;;5039997;28;19917;-78
2021/10/01 15:15:39;;;;;;;;;;;16.00;99.90;;;;;;5046439;28;20346;-78
2021/10/01 15:18:05;;;;;;;;;;;16.00;99.90;;;;;;5050747;28;19932;-79
2021/10/01 15:20:31;;;;;;;;;;;16.00;99.90;;;;;;5053684;28;19923;-79
2021/10/01 15:22:56;;;;;;;;;;;15.90;99.90;;;;;;5031653;28;20477;-78
2021/10/01 15:25:22;;;;;;;;;;;15.70;99.90;;;;;;5048659;28;19921;-80
2021/10/01 15:27:47;;;;;;;;;;;15.60;99.90;;;;;;5051905;28;19917;-80
2021/10/01 15:30:15;;;;;;;;;;;15.50;99.90;;;;;;5036241;28;19912;-79
2021/10/01 15:32:44;;;;;;;;;;;15.40;99.90;;;;;;5038909;28;20415;-78
2021/10/01 15:35:16;;;;;;;;;;;15.30;99.90;;;;;;5041302;28;20332;-80
2021/10/01 15:37:43;;;;;;;;;;;15.20;99.90;;;;;;5030659;28;19960;-80
2021/10/01 15:40:09;;;;;;;;;;;15.20;99.90;;;;;;5046878;28;20296;-80
2021/10/01 15:42:34;;;;;;;;;;;15.10;99.90;;;;;;5047616;28;19913;-81
2021/10/01 15:45:00;;;;;;;;;;;15.00;99.90;;;;;;5036334;28;19956;-80
2021/10/01 15:47:25;;;;;;;;;;;15.00;99.90;;;;;;5036555;28;19920;-79
2021/10/01 15:49:51;;;;;;;;;;;14.90;99.90;;;;;;5045441;28;19917;-79
2021/10/01 15:52:17;;;;;;;;;;;14.80;99.90;;;;;;5037450;28;19917;-81
2021/10/01 15:54:45;;;;;;;;;;;14.80;99.90;;;;;;5041650;28;20288;-77
2021/10/01 15:57:10;;;;;;;;;;;14.80;99.90;;;;;;5053111;28;19913;-78